createdAt,value
2023-02-19T00:00:56.504Z,36.28
2023-02-19T00:03:28.301Z,32.88
2023-02-19T00:06:10.346Z,33.35
2023-02-19T00:08:54.680Z,31.88
2023-02-19T00:11:40.475Z,31.98
2023-02-19T00:14:20.362Z,33.38
2023-02-19T00:17:01.991Z,31.75
2023-02-19T00:22:43.719Z,29.75
2023-02-19T00:25:21.647Z,28.35
2023-02-19T00:28:04.098Z,28.42
2023-02-19T00:30:43.205Z,27.42
2023-02-19T00:33:24.726Z,27.67
2023-02-19T00:36:02.260Z,27.30
2023-02-19T00:38:41.759Z,26.65
2023-02-19T00:41:29.233Z,25.83
2023-02-19T00:44:05.913Z,26.10
2023-02-19T00:46:47.474Z,27.02
2023-02-19T00:49:26.025Z,26.92
2023-02-19T00:52:02.409Z,26.27
2023-02-19T00:54:44.632Z,26.08
2023-02-19T00:57:17.058Z,27.05
2023-02-19T00:59:47.442Z,28.48
2023-02-19T01:02:24.908Z,28.10
2023-02-19T01:05:09.870Z,27.65
2023-02-19T01:07:50.405Z,28.90
2023-02-19T01:10:31.405Z,28.38
2023-02-19T01:13:12.654Z,27.10
2023-02-19T01:15:53.152Z,28.65
2023-02-19T01:18:33.963Z,28.58
2023-02-19T01:21:14.917Z,29.48
2023-02-19T01:23:53.213Z,28.35
2023-02-19T01:26:39.186Z,30.10
2023-02-19T01:29:26.251Z,33.05
2023-02-19T01:32:06.721Z,30.10
2023-02-19T01:37:22.099Z,32.38
2023-02-19T01:40:00.886Z,32.53
2023-02-19T01:42:41.420Z,33.10
2023-02-19T01:45:32.494Z,32.67
2023-02-19T01:48:09.745Z,35.15
2023-02-19T01:50:51.163Z,34.45
2023-02-19T01:56:11.290Z,32.53
2023-02-19T01:58:57.626Z,33.00
2023-02-19T02:01:28.108Z,33.35
2023-02-19T02:04:09.377Z,35.70
2023-02-19T02:07:28.121Z,33.90
2023-02-19T02:10:17.663Z,32.55
2023-02-19T02:16:04.603Z,32.70
2023-02-19T02:18:58.943Z,32.78
2023-02-19T02:22:02.238Z,31.75
2023-02-19T02:25:11.880Z,31.05
2023-02-19T02:28:00.876Z,30.27
2023-02-19T02:30:50.603Z,30.38
2023-02-19T02:33:33.175Z,29.58
2023-02-19T02:36:22.354Z,31.00
2023-02-19T02:39:02.095Z,29.85
2023-02-19T02:41:38.801Z,29.60
2023-02-19T02:44:13.648Z,31.50
2023-02-19T02:47:03.379Z,32.05
2023-02-19T02:50:10.497Z,32.92
2023-02-19T02:53:02.377Z,37.13
2023-02-19T02:55:45.383Z,39.40
2023-02-19T02:58:36.905Z,39.28
2023-02-19T03:01:37.183Z,42.83
2023-02-19T03:04:32.785Z,45.55
2023-02-19T03:07:12.463Z,43.83
2023-02-19T03:09:51.639Z,45.47
2023-02-19T03:12:41.215Z,46.05
2023-02-19T03:15:32.413Z,46.15
2023-02-19T03:21:07.206Z,47.08
2023-02-19T03:23:55.974Z,46.53
2023-02-19T03:26:29.260Z,48.25
2023-02-19T03:29:18.197Z,49.20
2023-02-19T03:32:05.398Z,47.80
2023-02-19T03:34:50.763Z,50.55
2023-02-19T03:37:45.224Z,50.75
2023-02-19T03:40:28.740Z,48.88
2023-02-19T03:43:16.049Z,48.80
2023-02-19T03:46:10.453Z,48.70
2023-02-19T03:49:02.601Z,50.38
2023-02-19T03:51:52.071Z,50.97
2023-02-19T03:54:46.145Z,48.72
2023-02-19T03:57:39.591Z,50.08
2023-02-19T04:00:23.506Z,52.65
2023-02-19T04:03:12.601Z,50.47
2023-02-19T04:05:56.064Z,52.00
2023-02-19T04:08:41.802Z,51.65
2023-02-19T04:11:28.098Z,50.25
2023-02-19T04:14:16.146Z,53.45
2023-02-19T04:16:56.801Z,50.85
2023-02-19T04:19:35.875Z,51.25
2023-02-19T04:22:29.789Z,50.33
2023-02-19T04:25:06.902Z,52.28
2023-02-19T04:28:01.226Z,52.05
2023-02-19T04:30:43.988Z,50.42
2023-02-19T04:33:18.935Z,50.40
2023-02-19T04:35:58.337Z,50.53
2023-02-19T04:38:34.396Z,50.80
2023-02-19T04:41:13.758Z,48.85
2023-02-19T04:46:59.006Z,50.65
2023-02-19T04:49:41.065Z,48.92
2023-02-19T04:52:21.418Z,49.80
2023-02-19T04:54:57.193Z,50.70
2023-02-19T04:57:56.627Z,47.38
2023-02-19T05:00:51.425Z,48.90
2023-02-19T05:03:31.106Z,47.13
2023-02-19T05:06:11.992Z,47.22
2023-02-19T05:08:50.538Z,51.03
2023-02-19T05:11:34.001Z,52.47
2023-02-19T05:14:15.112Z,48.55
2023-02-19T05:19:34.492Z,45.65
2023-02-19T05:22:18.548Z,44.55
2023-02-19T05:24:55.598Z,45.17
2023-02-19T05:27:30.760Z,45.15
2023-02-19T05:30:02.965Z,42.20
2023-02-19T05:32:44.262Z,41.60
2023-02-19T05:35:30.044Z,42.00
2023-02-19T05:38:15.935Z,42.17
2023-02-19T05:40:58.162Z,42.45
2023-02-19T05:43:40.968Z,40.45
2023-02-19T05:46:17.515Z,41.90
2023-02-19T05:48:59.851Z,42.83
2023-02-19T05:51:35.698Z,41.45
2023-02-19T05:54:06.923Z,39.00
2023-02-19T05:56:40.402Z,37.53
2023-02-19T05:59:22.067Z,38.30
2023-02-19T06:02:10.138Z,38.63
2023-02-19T06:04:55.588Z,37.08
2023-02-19T06:07:28.194Z,34.80
2023-02-19T06:10:12.692Z,33.95
2023-02-19T06:12:54.334Z,34.55
2023-02-19T06:15:33.318Z,32.67
2023-02-19T06:18:12.941Z,31.98
2023-02-19T06:20:58.017Z,34.05
2023-02-19T06:23:50.887Z,32.42
2023-02-19T06:26:32.325Z,33.53
2023-02-19T06:29:05.339Z,32.35
2023-02-19T06:31:56.136Z,34.13
2023-02-19T06:34:39.239Z,30.63
2023-02-19T06:37:28.264Z,29.42
2023-02-19T06:40:16.225Z,31.38
2023-02-19T06:42:49.201Z,32.25
2023-02-19T06:45:32.168Z,32.47
2023-02-19T06:48:07.585Z,35.53
2023-02-19T06:50:43.619Z,38.60
2023-02-19T06:53:33.654Z,37.65
2023-02-19T06:56:14.018Z,39.90
2023-02-19T06:58:47.315Z,38.03
2023-02-19T07:01:35.164Z,39.90
2023-02-19T07:04:16.339Z,40.65
2023-02-19T07:06:51.494Z,41.72
2023-02-19T07:09:32.209Z,40.30
2023-02-19T07:12:19.640Z,48.35
2023-02-19T07:15:02.887Z,43.50
2023-02-19T07:17:34.042Z,47.13
2023-02-19T07:20:13.146Z,52.25
2023-02-19T07:22:50.862Z,47.58
2023-02-19T07:25:31.413Z,50.40
2023-02-19T07:28:06.374Z,45.95
2023-02-19T07:30:42.067Z,46.80
2023-02-19T07:33:21.648Z,43.92
2023-02-19T07:35:57.190Z,49.28
2023-02-19T07:38:53.744Z,49.85
2023-02-19T07:41:36.939Z,47.75
2023-02-19T07:44:20.409Z,45.30
2023-02-19T07:47:04.342Z,39.83
2023-02-19T07:49:41.134Z,36.60
2023-02-19T07:52:21.581Z,35.80
2023-02-19T07:55:04.782Z,31.85
2023-02-19T07:57:49.950Z,32.42
2023-02-19T08:00:34.565Z,29.92
2023-02-19T08:03:09.597Z,27.80
2023-02-19T08:05:57.706Z,30.48
2023-02-19T08:08:40.654Z,26.70
2023-02-19T08:11:31.867Z,25.73
2023-02-19T08:17:12.147Z,26.70
2023-02-19T08:20:00.868Z,26.20
2023-02-19T08:22:33.296Z,26.27
2023-02-19T08:25:12.557Z,26.77
2023-02-19T08:27:53.432Z,27.38
2023-02-19T08:30:44.560Z,25.88
2023-02-19T08:36:27.799Z,24.77
2023-02-19T08:39:00.170Z,23.13
2023-02-19T08:41:37.452Z,21.58
2023-02-19T08:44:13.565Z,21.80
2023-02-19T08:47:01.157Z,19.23
2023-02-19T08:49:39.109Z,19.75
2023-02-19T08:52:13.291Z,19.45
2023-02-19T08:54:47.675Z,19.95
2023-02-19T08:57:50.592Z,18.92
2023-02-19T09:00:30.156Z,18.27
2023-02-19T09:03:13.525Z,18.52
2023-02-19T09:05:52.921Z,19.17
2023-02-19T09:08:34.950Z,21.60
2023-02-19T09:11:14.304Z,20.38
2023-02-19T09:13:50.107Z,22.83
2023-02-19T09:16:28.552Z,19.33
2023-02-19T09:19:19.521Z,17.05
2023-02-19T09:21:56.213Z,19.38
2023-02-19T09:24:36.413Z,20.45
2023-02-19T09:27:23.322Z,17.15
2023-02-19T09:30:02.490Z,14.65
2023-02-19T09:32:47.394Z,14.27
2023-02-19T09:35:36.759Z,16.02
2023-02-19T09:38:20.630Z,14.02
2023-02-19T09:40:57.702Z,13.38
2023-02-19T09:43:31.060Z,11.40
2023-02-19T09:46:25.933Z,11.00
2023-02-19T09:49:17.397Z,8.55
2023-02-19T09:54:45.865Z,8.32
2023-02-19T09:57:23.568Z,9.65
2023-02-19T10:00:15.052Z,10.80
2023-02-19T10:02:59.943Z,10.38
2023-02-19T10:05:36.477Z,15.98
2023-02-19T10:08:21.775Z,13.35
2023-02-19T10:10:57.650Z,9.18
2023-02-19T10:13:46.070Z,8.82
2023-02-19T10:16:26.651Z,10.15
2023-02-19T10:19:07.311Z,9.25
2023-02-19T10:21:45.471Z,9.00
2023-02-19T10:24:24.766Z,8.02
2023-02-19T10:27:07.011Z,8.52
2023-02-19T10:29:40.257Z,7.45
2023-02-19T10:32:28.436Z,7.78
2023-02-19T10:35:22.144Z,8.50
2023-02-19T10:38:02.616Z,7.78
2023-02-19T10:40:42.301Z,7.68
2023-02-19T10:43:38.975Z,7.90
2023-02-19T10:46:27.323Z,8.07
2023-02-19T10:49:06.803Z,8.07
2023-02-19T10:51:43.483Z,8.63
2023-02-19T10:54:33.788Z,8.30
2023-02-19T10:57:40.959Z,10.00
2023-02-19T11:00:38.314Z,9.02
2023-02-19T11:03:29.110Z,8.05
2023-02-19T11:06:26.120Z,7.40
2023-02-19T11:09:03.185Z,7.82
2023-02-19T11:11:43.741Z,9.35
2023-02-19T11:14:19.798Z,7.80
2023-02-19T11:17:28.836Z,6.97
2023-02-19T11:20:10.189Z,8.43
2023-02-19T11:22:50.693Z,9.32
2023-02-19T11:25:33.205Z,8.48
2023-02-19T11:28:41.732Z,8.77
2023-02-19T11:31:33.788Z,11.00
2023-02-19T11:34:37.455Z,7.78
2023-02-19T11:37:28.385Z,7.47
2023-02-19T11:40:01.948Z,7.25
2023-02-19T11:42:48.997Z,7.47
2023-02-19T11:45:56.362Z,8.60
2023-02-19T11:49:07.060Z,9.15
2023-02-19T11:52:02.665Z,10.85
2023-02-19T11:54:51.962Z,12.35
2023-02-19T11:57:52.990Z,10.07
2023-02-19T12:00:35.452Z,7.65
2023-02-19T12:03:28.666Z,8.98
2023-02-19T12:06:17.248Z,9.70
2023-02-19T12:09:23.802Z,9.52
2023-02-19T12:12:32.476Z,9.07
2023-02-19T12:15:44.069Z,8.50
2023-02-19T12:18:40.371Z,8.60
2023-02-19T12:21:30.385Z,7.43
2023-02-19T12:24:47.521Z,8.10
2023-02-19T12:27:47.317Z,7.85
2023-02-19T12:30:33.374Z,6.68
2023-02-19T12:33:38.145Z,7.05
2023-02-19T12:36:34.337Z,7.82
2023-02-19T12:39:13.150Z,8.05
2023-02-19T12:42:03.605Z,8.07
2023-02-19T12:44:45.447Z,9.32
2023-02-19T12:47:23.619Z,9.25
2023-02-19T12:50:09.279Z,10.98
2023-02-19T12:52:46.270Z,9.02
2023-02-19T12:55:31.387Z,7.38
2023-02-19T12:58:24.615Z,7.43
2023-02-19T13:01:02.251Z,7.90
2023-02-19T13:03:52.271Z,8.00
2023-02-19T13:06:37.287Z,7.32
2023-02-19T13:09:17.384Z,7.68
2023-02-19T13:12:03.757Z,7.40
2023-02-19T13:14:43.441Z,7.03
2023-02-19T13:17:32.198Z,6.65
2023-02-19T13:20:11.705Z,9.50
2023-02-19T13:23:05.746Z,11.50
2023-02-19T13:26:00.515Z,10.70
2023-02-19T13:28:52.900Z,13.25
2023-02-19T13:32:19.473Z,8.00
2023-02-19T13:35:04.185Z,8.25
2023-02-19T13:37:40.738Z,11.13
2023-02-19T13:40:45.728Z,10.52
2023-02-19T13:43:30.269Z,10.95
2023-02-19T13:46:08.294Z,9.35
2023-02-19T13:48:48.389Z,8.55
2023-02-19T13:51:56.808Z,8.73
2023-02-19T13:54:33.286Z,5.93
2023-02-19T13:57:33.978Z,6.80
2023-02-19T14:00:57.225Z,6.65
2023-02-19T14:03:35.360Z,7.28
2023-02-19T14:08:56.865Z,6.85
2023-02-19T14:12:10.388Z,6.53
2023-02-19T14:14:46.302Z,7.07
2023-02-19T14:17:36.102Z,6.00
2023-02-19T14:20:50.098Z,7.93
2023-02-19T14:23:31.303Z,7.05
2023-02-19T14:28:43.561Z,6.95
2023-02-19T14:31:31.453Z,6.95
2023-02-19T14:34:12.632Z,6.28
2023-02-19T14:39:35.711Z,10.98
2023-02-19T14:42:17.729Z,12.50
2023-02-19T14:44:58.989Z,12.77
2023-02-19T14:47:44.135Z,12.73
2023-02-19T14:50:28.716Z,12.88
2023-02-19T14:53:04.608Z,12.20
2023-02-19T14:55:46.560Z,11.38
2023-02-19T14:58:24.724Z,13.40
2023-02-19T15:00:57.412Z,12.13
2023-02-19T15:03:47.517Z,10.68
2023-02-19T15:06:26.448Z,10.95
2023-02-19T15:09:04.455Z,11.82
2023-02-19T15:11:45.481Z,12.43
2023-02-19T15:17:04.202Z,12.02
2023-02-19T15:19:44.675Z,19.85
2023-02-19T15:22:24.289Z,14.70
2023-02-19T15:25:02.253Z,12.88
2023-02-19T15:27:49.434Z,15.73
2023-02-19T15:30:30.520Z,9.70
2023-02-19T15:33:07.272Z,10.05
2023-02-19T15:35:45.997Z,12.85
2023-02-19T15:38:21.958Z,11.60
2023-02-19T15:40:57.406Z,11.38
2023-02-19T15:43:39.468Z,12.82
2023-02-19T15:46:23.461Z,9.80
2023-02-19T15:49:01.512Z,9.77
2023-02-19T15:51:44.692Z,13.07
2023-02-19T15:54:27.220Z,13.50
2023-02-19T15:57:13.634Z,18.02
2023-02-19T15:59:58.727Z,22.05
2023-02-19T16:02:32.207Z,36.40
2023-02-19T16:05:08.413Z,22.27
2023-02-19T16:07:44.791Z,17.33
2023-02-19T16:10:31.637Z,17.55
2023-02-19T16:13:09.502Z,20.08
2023-02-19T16:15:47.336Z,18.40
2023-02-19T16:18:37.826Z,25.75
2023-02-19T16:21:17.163Z,22.27
2023-02-19T16:23:50.608Z,19.65
2023-02-19T16:26:31.528Z,23.65
2023-02-19T16:29:24.335Z,22.77
2023-02-19T16:34:50.896Z,22.33
2023-02-19T16:37:46.720Z,23.88
2023-02-19T16:41:19.580Z,24.20
2023-02-19T16:43:52.295Z,22.10
2023-02-19T16:46:31.530Z,27.48
2023-02-19T16:49:16.514Z,19.90
2023-02-19T16:52:02.140Z,20.35
2023-02-19T16:54:46.056Z,24.58
2023-02-19T16:57:29.121Z,23.20
2023-02-19T17:00:05.287Z,47.92
2023-02-19T17:02:45.972Z,41.03
2023-02-19T17:05:24.324Z,31.17
2023-02-19T17:08:00.102Z,22.15
2023-02-19T17:10:31.787Z,24.85
2023-02-19T17:13:04.053Z,26.08
2023-02-19T17:15:38.270Z,27.40
2023-02-19T17:18:16.284Z,36.85
2023-02-19T17:21:02.960Z,36.60
2023-02-19T17:23:34.289Z,29.80
2023-02-19T17:26:19.984Z,26.35
2023-02-19T17:28:59.584Z,20.65
2023-02-19T17:31:35.409Z,18.73
2023-02-19T17:34:10.388Z,17.05
2023-02-19T17:36:48.230Z,18.65
2023-02-19T17:39:25.622Z,17.95
2023-02-19T17:42:04.378Z,16.90
2023-02-19T17:44:37.552Z,16.83
2023-02-19T17:47:08.532Z,17.67
2023-02-19T17:49:45.894Z,16.95
2023-02-19T17:52:22.143Z,18.10
2023-02-19T17:54:57.854Z,20.38
2023-02-19T17:57:36.312Z,20.30
2023-02-19T18:00:13.744Z,20.55
2023-02-19T18:02:46.297Z,22.35
2023-02-19T18:05:20.156Z,22.33
2023-02-19T18:07:55.526Z,23.35
2023-02-19T18:10:29.615Z,22.02
2023-02-19T18:13:05.925Z,22.20
2023-02-19T18:15:36.410Z,20.25
2023-02-19T18:18:15.661Z,22.95
2023-02-19T18:20:52.713Z,21.42
2023-02-19T18:23:29.063Z,23.38
2023-02-19T18:26:00.982Z,22.92
2023-02-19T18:28:32.539Z,27.75
2023-02-19T18:31:07.559Z,26.48
2023-02-19T18:33:38.076Z,26.42
2023-02-19T18:36:13.836Z,27.88
2023-02-19T18:38:53.573Z,26.63
2023-02-19T18:41:36.026Z,26.58
2023-02-19T18:44:10.730Z,24.67
2023-02-19T18:46:43.985Z,29.92
2023-02-19T18:49:24.835Z,29.15
2023-02-19T18:51:56.188Z,28.73
2023-02-19T18:54:42.933Z,26.23
2023-02-19T18:57:14.176Z,28.27
2023-02-19T18:59:45.234Z,28.63
2023-02-19T19:04:58.874Z,33.88
2023-02-19T19:07:29.522Z,31.85
2023-02-19T19:10:15.761Z,31.60
2023-02-19T19:12:55.060Z,27.13
2023-02-19T19:15:28.251Z,28.55
2023-02-19T19:18:00.938Z,27.92
2023-02-19T19:20:39.009Z,30.55
2023-02-19T19:23:16.019Z,35.30
2023-02-19T19:26:07.681Z,31.20
2023-02-19T19:28:47.989Z,23.77
2023-02-19T19:31:28.047Z,25.50
2023-02-19T19:34:04.819Z,21.10
2023-02-19T19:36:46.270Z,23.13
2023-02-19T19:39:20.564Z,21.13
2023-02-19T19:42:06.777Z,20.70
2023-02-19T19:44:46.643Z,21.23
2023-02-19T19:47:17.552Z,20.17
2023-02-19T19:50:00.646Z,20.67
2023-02-19T19:52:33.302Z,20.45
2023-02-19T19:55:04.841Z,21.05
2023-02-19T19:57:41.988Z,20.73
2023-02-19T20:00:21.553Z,20.25
2023-02-19T20:03:00.592Z,19.52
2023-02-19T20:05:35.166Z,21.13
2023-02-19T20:08:11.647Z,20.38
2023-02-19T20:10:47.232Z,19.95
2023-02-19T20:13:37.577Z,20.25
2023-02-19T20:16:17.755Z,22.42
2023-02-19T20:19:01.998Z,23.55
2023-02-19T20:21:41.212Z,24.85
2023-02-19T20:24:17.198Z,26.38
2023-02-19T20:27:05.331Z,23.48
2023-02-19T20:29:52.125Z,23.48
2023-02-19T20:32:32.615Z,23.27
2023-02-19T20:35:07.233Z,22.80
2023-02-19T20:37:53.985Z,23.13
2023-02-19T20:40:41.636Z,23.23
2023-02-19T20:43:16.596Z,22.63
2023-02-19T20:46:04.653Z,22.92
2023-02-19T20:48:37.235Z,20.00
2023-02-19T20:51:08.787Z,19.83
2023-02-19T20:53:55.862Z,18.63
2023-02-19T20:56:34.026Z,19.65
2023-02-19T20:59:08.860Z,18.80
2023-02-19T21:01:57.771Z,18.83
2023-02-19T21:04:40.930Z,18.17
2023-02-19T21:07:19.276Z,17.88
2023-02-19T21:09:58.738Z,15.43
2023-02-19T21:12:33.902Z,9.88
2023-02-19T21:15:15.438Z,8.32
2023-02-19T21:17:54.380Z,7.78
2023-02-19T21:20:25.260Z,5.00
2023-02-19T21:25:41.678Z,2.35
2023-02-19T21:28:13.778Z,1.88
2023-02-19T21:30:46.786Z,2.20
2023-02-19T21:33:31.521Z,1.60
2023-02-19T21:36:06.601Z,2.05
2023-02-19T21:38:39.109Z,1.50
2023-02-19T21:41:14.140Z,1.92
2023-02-19T21:43:44.783Z,1.52
2023-02-19T21:46:27.660Z,1.80
2023-02-19T21:49:13.137Z,2.88
2023-02-19T21:51:53.126Z,2.90
2023-02-19T21:54:31.423Z,3.35
2023-02-19T21:57:14.586Z,2.80
2023-02-19T21:59:50.303Z,2.40
2023-02-19T22:02:31.847Z,2.78
2023-02-19T22:05:19.337Z,3.17
2023-02-19T22:07:57.212Z,2.75
2023-02-19T22:10:49.528Z,3.10
2023-02-19T22:13:25.692Z,3.28
2023-02-19T22:16:02.931Z,2.60
2023-02-19T22:18:45.228Z,2.95
2023-02-19T22:21:28.087Z,3.15
2023-02-19T22:24:05.057Z,2.55
2023-02-19T22:26:44.340Z,2.42
2023-02-19T22:29:25.825Z,2.58
2023-02-19T22:32:04.006Z,2.75
2023-02-19T22:34:48.001Z,2.67
2023-02-19T22:37:28.931Z,3.17
2023-02-19T22:40:09.904Z,3.88
2023-02-19T22:42:43.592Z,4.60
2023-02-19T22:45:23.032Z,4.60
2023-02-19T22:48:03.474Z,5.00
2023-02-19T22:50:38.866Z,6.65
2023-02-19T22:53:32.900Z,7.30
2023-02-19T22:56:09.310Z,7.35
2023-02-19T22:58:45.066Z,8.73
2023-02-19T23:01:23.620Z,7.95
2023-02-19T23:04:01.232Z,9.82
2023-02-19T23:06:38.157Z,6.95
2023-02-19T23:09:23.480Z,5.28
2023-02-19T23:11:55.353Z,5.07
2023-02-19T23:14:35.833Z,5.75
2023-02-19T23:17:09.078Z,8.38
2023-02-19T23:19:51.093Z,7.10
2023-02-19T23:22:28.761Z,7.95
2023-02-19T23:25:14.822Z,7.30
2023-02-19T23:27:51.556Z,7.72
2023-02-19T23:30:26.373Z,8.13
2023-02-19T23:32:59.499Z,9.32
2023-02-19T23:35:31.857Z,8.98
2023-02-19T23:38:07.110Z,8.10
2023-02-19T23:40:49.660Z,7.40
2023-02-19T23:43:36.953Z,6.05
2023-02-19T23:46:12.119Z,5.53
2023-02-19T23:48:57.680Z,4.80
2023-02-19T23:51:36.618Z,5.22
2023-02-19T23:54:17.475Z,5.00
2023-02-19T23:57:11.069Z,5.32
2023-02-19T23:59:49.199Z,3.70
